Time;durP1;ratioP1;P1;durP2;ratioP2;P2;SDS_P1;SDS_P2;PMS_P1;PMS_P2;Temp;Humidity;BMP_temperature;BMP_pressure;BME280_temperature;BME280_humidity;BME280_pressure;Samples;Min_cycle;Max_cycle;Signal;HPM_P1;HPM_P2
2022/07/01 00:00:10;;;;;;;2.13;1.93;;;;;;;25.01;75.33;99334.09;5049123;28;20250;-72
2022/07/01 00:02:38;;;;;;;2.10;1.90;;;;;;;24.97;75.21;99319.66;5044886;28;20651;-71
2022/07/01 00:05:06;;;;;;;3.33;1.83;;;;;;;24.94;74.88;99322.50;5049674;28;20589;-71
2022/07/01 00:07:33;;;;;;;2.63;2.27;;;;;;;24.81;74.72;99300.97;5051874;28;20228;-72
2022/07/01 00:09:59;;;;;;;2.27;2.17;;;;;;;24.90;74.63;99322.94;5050500;28;20661;-72
2022/07/01 00:12:26;;;;;;;2.20;2.10;;;;;;;24.87;75.46;99331.09;5051998;28;20204;-71
2022/07/01 00:14:53;;;;;;;2.20;2.10;;;;;;;24.84;75.51;99334.81;5051314;28;20217;-71
2022/07/01 00:17:20;;;;;;;2.40;2.27;;;;;;;24.83;76.02;99334.94;5050761;28;20201;-72
2022/07/01 00:19:50;;;;;;;2.30;2.20;;;;;;;24.80;76.69;99333.41;5051942;28;20573;-72
2022/07/01 00:22:17;;;;;;;1.90;1.80;;;;;;;24.80;76.28;99324.72;5051805;28;20204;-72
2022/07/01 00:24:45;;;;;;;2.00;1.93;;;;;;;24.77;75.97;99319.75;5051591;28;20197;-71
2022/07/01 00:27:13;;;;;;;3.90;2.30;;;;;;;24.65;76.37;99300.72;5051496;28;20246;-71
2022/07/01 00:29:40;;;;;;;2.47;2.27;;;;;;;24.72;76.31;99316.72;5051350;28;20262;-72
2022/07/01 00:32:07;;;;;;;3.97;2.30;;;;;;;24.70;76.12;99319.47;5049507;28;20212;-71
2022/07/01 00:34:34;;;;;;;2.20;2.10;;;;;;;24.70;75.84;99313.38;5043366;28;20212;-71
2022/07/01 00:37:03;;;;;;;1.97;1.73;;;;;;;24.66;76.30;99312.81;5050920;28;20660;-71
2022/07/01 00:39:31;;;;;;;2.17;2.07;;;;;;;24.65;76.55;99310.34;5050406;28;20247;-71
2022/07/01 00:42:00;;;;;;;2.70;2.53;;;;;;;24.58;76.19;99304.84;5051099;28;20201;-72
2022/07/01 00:44:28;;;;;;;3.30;2.10;;;;;;;24.55;77.48;99298.09;5049280;28;20272;-72
2022/07/01 00:46:55;;;;;;;5.73;2.50;;;;;;;24.50;77.85;99302.06;5043605;28;20200;-72
2022/07/01 00:49:22;;;;;;;2.93;2.80;;;;;;;24.41;77.96;99314.19;5051442;28;20212;-71
2022/07/01 00:51:49;;;;;;;4.43;2.43;;;;;;;24.28;77.98;99302.31;5051953;28;20192;-72
2022/07/01 00:54:18;;;;;;;3.23;2.87;;;;;;;24.30;78.77;99318.69;5051366;28;20221;-71
2022/07/01 00:56:45;;;;;;;3.00;2.80;;;;;;;24.28;78.77;99307.53;5050271;28;20561;-71
2022/07/01 00:59:12;;;;;;;2.80;2.60;;;;;;;24.25;79.34;99308.66;5050638;28;20231;-71
2022/07/01 01:01:38;;;;;;;2.80;2.60;;;;;;;24.23;79.43;99304.50;5051214;28;20212;-72
2022/07/01 01:04:05;;;;;;;2.57;2.40;;;;;;;24.17;79.63;99299.81;5051567;28;20576;-72
2022/07/01 01:06:32;;;;;;;2.90;2.70;;;;;;;24.18;80.05;99304.91;5050938;28;20211;-71
2022/07/01 01:08:59;;;;;;;2.77;2.57;;;;;;;24.16;80.11;99303.38;5051619;28;20200;-71
2022/07/01 01:11:28;;;;;;;3.00;2.80;;;;;;;24.10;80.34;99298.66;5040794;28;20250;-71
2022/07/01 01:13:54;;;;;;;2.17;2.07;;;;;;;24.06;80.63;99303.31;5051171;28;20211;-71
2022/07/01 01:16:23;;;;;;;2.60;2.40;;;;;;;24.05;80.92;99304.28;5048970;28;20546;-71
2022/07/01 01:18:50;;;;;;;2.67;2.47;;;;;;;24.02;81.21;99300.16;5050334;28;20695;-71
2022/07/01 01:21:19;;;;;;;3.23;3.03;;;;;;;24.00;81.33;99296.84;5050806;28;20200;-72
2022/07/01 01:23:46;;;;;;;2.80;2.60;;;;;;;23.98;81.29;99298.75;5050147;28;20209;-71
2022/07/01 01:26:21;;;;;;;3.13;2.93;;;;;;;23.96;81.30;99295.44;5050852;28;20258;-72
2022/07/01 01:28:48;;;;;;;2.60;2.40;;;;;;;23.91;81.86;99284.53;5050690;28;20200;-71
2022/07/01 01:31:16;;;;;;;2.60;2.47;;;;;;;23.89;81.62;99291.69;5036911;28;20566;-71
2022/07/01 01:33:43;;;;;;;4.97;2.40;;;;;;;23.88;81.70;99290.03;5045482;28;20455;-71
2022/07/01 01:36:10;;;;;;;4.30;3.13;;;;;;;23.83;81.83;99280.91;5046308;28;20213;-71
2022/07/01 01:38:38;;;;;;;3.00;2.80;;;;;;;23.83;81.78;99291.41;5031991;28;20198;-71
2022/07/01 01:41:05;;;;;;;4.33;3.43;;;;;;;23.74;82.27;99293.03;5029205;28;20229;-72
2022/07/01 01:43:35;;;;;;;3.27;3.07;;;;;;;23.70;82.30;99296.84;5047606;28;20219;-71
2022/07/01 01:46:02;;;;;;;8.10;3.47;;;;;;;23.63;82.57;99300.94;5049231;28;20731;-72
2022/07/01 01:48:30;;;;;;;3.87;3.63;;;;;;;23.58;82.57;99297.91;5049451;28;20197;-72
2022/07/01 01:50:57;;;;;;;4.00;2.90;;;;;;;23.59;82.93;99307.41;5050686;28;20762;-72
2022/07/01 01:53:24;;;;;;;3.47;3.30;;;;;;;23.53;83.43;99305.31;5048173;28;20262;-71
2022/07/01 01:55:53;;;;;;;3.83;3.23;;;;;;;23.46;84.06;99304.16;5049332;28;20228;-71
2022/07/01 01:58:20;;;;;;;4.20;3.90;;;;;;;23.40;84.20;99294.22;5050723;28;20634;-72
2022/07/01 02:00:46;;;;;;;5.73;4.20;;;;;;;23.31;85.39;99300.19;5050344;28;20219;-71
2022/07/01 02:03:13;;;;;;;5.40;3.67;;;;;;;23.22;86.10;99316.66;5050613;28;20215;-71
2022/07/01 02:05:40;;;;;;;4.27;4.07;;;;;;;23.17;86.96;99313.59;5050150;28;20204;-71
2022/07/01 02:08:07;;;;;;;5.27;4.47;;;;;;;23.10;87.26;99317.69;5050013;28;20196;-71
2022/07/01 02:10:34;;;;;;;4.50;4.20;;;;;;;23.01;88.53;99309.66;5050240;28;20215;-71
2022/07/01 02:13:02;;;;;;;6.27;4.83;;;;;;;23.02;88.70;99316.53;5050034;28;20208;-71
2022/07/01 02:15:30;;;;;;;5.37;4.97;;;;;;;23.00;89.51;99320.25;5046873;28;20217;-71
2022/07/01 02:17:57;;;;;;;5.00;4.77;;;;;;;22.99;89.33;99319.41;5030294;28;20208;-71
2022/07/01 02:20:24;;;;;;;4.53;4.33;;;;;;;22.98;89.11;99315.13;5030598;28;20686;-71
2022/07/01 02:22:52;;;;;;;6.73;4.60;;;;;;;22.90;88.77;99309.72;5030152;28;20619;-71
2022/07/01 02:25:20;;;;;;;3.90;3.77;;;;;;;22.91;89.08;99316.59;5030176;28;20197;-72
2022/07/01 02:27:46;;;;;;;4.93;4.57;;;;;;;22.88;89.14;99318.63;5044609;28;20227;-72
2022/07/01 02:30:15;;;;;;;4.43;4.13;;;;;;;22.80;89.42;99327.09;5047759;28;20210;-72
2022/07/01 02:32:42;;;;;;;7.50;5.00;;;;;;;22.71;88.95;99325.25;5050027;28;20208;-71
2022/07/01 02:35:10;;;;;;;4.00;3.73;;;;;;;22.73;88.90;99331.16;5054008;28;20223;-71
2022/07/01 02:37:37;;;;;;;3.50;3.40;;;;;;;22.68;88.73;99322.84;5054371;28;20197;-71
2022/07/01 02:40:05;;;;;;;4.40;4.20;;;;;;;22.69;89.58;99334.97;5053804;28;20232;-71
2022/07/01 02:42:35;;;;;;;4.47;4.23;;;;;;;22.59;89.64;99341.84;5052970;28;20196;-71
2022/07/01 02:45:03;;;;;;;4.40;4.00;;;;;;;22.54;90.01;99335.34;5053881;28;20199;-70
2022/07/01 02:47:35;;;;;;;4.20;3.97;;;;;;;22.45;90.33;99326.47;5053834;28;20196;-71
2022/07/01 02:50:03;;;;;;;4.70;4.27;;;;;;;22.41;91.12;99341.56;5052647;28;20580;-71
2022/07/01 02:52:30;;;;;;;4.63;4.43;;;;;;;22.37;91.98;99341.91;5054179;28;20296;-72
2022/07/01 02:54:57;;;;;;;4.37;4.17;;;;;;;22.31;92.33;99339.78;5053166;28;20224;-71
2022/07/01 02:57:24;;;;;;;5.03;4.67;;;;;;;22.37;92.84;99352.38;5053422;28;20204;-71
2022/07/01 02:59:51;;;;;;;4.77;4.40;;;;;;;22.38;93.05;99346.19;5054069;28;20197;-72
2022/07/01 03:02:19;;;;;;;12.47;5.90;;;;;;;22.34;93.75;99339.56;5053886;28;20631;-71
2022/07/01 03:04:47;;;;;;;7.33;4.60;;;;;;;22.27;93.49;99343.59;5053349;28;20283;-71
2022/07/01 03:07:14;;;;;;;4.70;4.50;;;;;;;22.29;93.60;99358.22;5053314;28;20200;-71
2022/07/01 03:09:41;;;;;;;4.63;4.30;;;;;;;22.33;93.53;99364.00;5053843;28;20228;-71
2022/07/01 03:14:51;;;;;;;4.73;4.47;;;;;;;22.29;93.40;99363.44;5037078;28;20219;-71
2022/07/01 03:17:17;;;;;;;5.13;4.80;;;;;;;22.29;93.38;99368.66;5053536;28;20200;-71
2022/07/01 03:19:44;;;;;;;6.23;4.10;;;;;;;22.31;92.88;99377.19;5053666;28;20200;-71
2022/07/01 03:22:13;;;;;;;5.53;5.23;;;;;;;22.34;93.78;99368.28;5048843;28;20640;-71
2022/07/01 03:24:39;;;;;;;5.70;5.13;;;;;;;22.33;93.48;99364.00;5053491;28;20234;-72
2022/07/01 03:27:07;;;;;;;5.20;4.80;;;;;;;22.27;93.41;99369.72;5036556;28;20197;-72
2022/07/01 03:29:33;;;;;;;4.73;4.37;;;;;;;22.27;93.15;99372.31;5031852;28;20640;-71
2022/07/01 03:32:00;;;;;;;4.93;4.63;;;;;;;22.25;93.73;99372.47;5033767;28;20680;-71
2022/07/01 03:34:27;;;;;;;5.00;4.80;;;;;;;22.15;93.45;99355.00;5050531;28;20214;-71
2022/07/01 03:36:54;;;;;;;10.23;5.37;;;;;;;22.17;93.89;99368.75;5053157;28;20664;-71
2022/07/01 03:39:22;;;;;;;4.90;4.70;;;;;;;22.19;94.02;99361.66;5052686;28;20298;-71
2022/07/01 03:41:49;;;;;;;5.47;5.03;;;;;;;22.24;93.70;99362.13;5051468;28;20600;-71
2022/07/01 03:44:16;;;;;;;4.53;4.23;;;;;;;22.29;93.22;99362.59;5051781;28;20197;-72
2022/07/01 03:46:43;;;;;;;5.07;4.40;;;;;;;22.42;92.85;99363.28;5048744;28;20203;-71
2022/07/01 03:49:10;;;;;;;4.93;4.40;;;;;;;22.54;92.29;99367.53;5051925;28;20208;-72
2022/07/01 03:51:37;;;;;;;4.20;3.90;;;;;;;22.68;91.42;99361.25;5050575;28;20284;-71
2022/07/01 03:56:50;;;;;;;4.90;4.50;;;;;;;22.84;90.28;99351.22;5052755;28;20354;-71
2022/07/01 03:59:17;;;;;;;4.80;4.40;;;;;;;23.01;90.06;99367.16;5053164;28;20584;-72
2022/07/01 04:01:44;;;;;;;4.90;4.60;;;;;;;23.14;89.53;99372.22;5051280;28;20209;-72
2022/07/01 04:04:11;;;;;;;4.07;3.87;;;;;;;23.25;89.17;99376.56;5050733;28;20213;-71
2022/07/01 04:06:38;;;;;;;5.00;4.60;;;;;;;23.36;88.70;99379.16;5050513;28;20208;-70
2022/07/01 04:09:05;;;;;;;5.53;5.23;;;;;;;23.51;87.73;99380.50;5051368;28;20205;-71
2022/07/01 04:11:33;;;;;;;6.50;4.80;;;;;;;23.62;87.17;99375.19;5049010;28;20740;-72
2022/07/01 04:14:02;;;;;;;4.60;4.33;;;;;;;23.75;87.06;99385.47;5048317;28;20292;-71
2022/07/01 04:16:28;;;;;;;4.93;4.73;;;;;;;23.92;86.37;99385.69;5050521;28;20228;-71
2022/07/01 04:18:55;;;;;;;4.17;3.97;;;;;;;24.08;86.45;99390.44;5051962;28;20208;-71
2022/07/01 04:24:07;;;;;;;4.77;4.37;;;;;;;24.53;85.17;99380.41;5052204;28;20207;-71
2022/07/01 04:26:34;;;;;;;4.87;4.67;;;;;;;24.72;84.55;99383.06;5050395;28;20208;-71
2022/07/01 04:29:03;;;;;;;4.00;3.80;;;;;;;24.95;83.68;99387.13;5052286;28;20197;-71
2022/07/01 04:31:29;;;;;;;4.53;4.13;;;;;;;25.19;82.79;99383.25;5051887;28;20196;-71
2022/07/01 04:33:56;;;;;;;4.20;4.00;;;;;;;25.40;81.28;99383.91;5049865;28;20561;-71
2022/07/01 04:36:23;;;;;;;4.00;3.80;;;;;;;25.60;78.75;99388.22;5051449;28;20712;-71
2022/07/01 04:38:50;;;;;;;4.70;3.57;;;;;;;25.74;78.79;99385.16;5051716;28;20207;-71
2022/07/01 04:44:03;;;;;;;3.47;3.27;;;;;;;26.19;78.57;99390.53;5051683;28;20258;-72
2022/07/01 04:46:30;;;;;;;3.53;3.33;;;;;;;26.33;77.13;99395.31;5051671;28;20220;-72
2022/07/01 04:48:57;;;;;;;6.93;3.63;;;;;;;26.45;75.38;99386.25;5048772;28;20661;-71
2022/07/01 04:51:24;;;;;;;3.17;3.07;;;;;;;26.62;73.45;99390.69;5051787;28;20588;-72
2022/07/01 04:53:51;;;;;;;3.80;3.60;;;;;;;26.76;72.56;99393.81;5051665;28;20207;-72
2022/07/01 04:56:18;;;;;;;3.37;3.17;;;;;;;26.83;73.00;99387.00;5050874;28;20219;-72
2022/07/01 04:58:45;;;;;;;6.40;3.40;;;;;;;26.84;71.48;99384.25;5051472;28;20200;-72
2022/07/01 05:01:13;;;;;;;3.40;3.30;;;;;;;26.75;70.96;99387.75;5050936;28;20618;-72
2022/07/01 05:03:40;;;;;;;2.97;2.77;;;;;;;26.82;70.47;99382.75;5051436;28;20205;-72
2022/07/01 05:06:07;;;;;;;3.03;2.77;;;;;;;26.98;68.87;99388.97;5051005;28;20275;-71
2022/07/01 05:08:33;;;;;;;4.77;2.90;;;;;;;27.18;68.48;99388.81;5051387;28;20196;-72
2022/07/01 05:11:00;;;;;;;3.33;2.60;;;;;;;27.24;67.82;99383.75;5050950;28;20193;-72
2022/07/01 05:13:27;;;;;;;7.10;3.67;;;;;;;27.36;68.70;99384.34;5050368;28;20619;-73
2022/07/01 05:15:54;;;;;;;3.60;2.67;;;;;;;27.51;67.48;99390.75;5050367;28;20285;-73
2022/07/01 05:23:51;;;;;;;2.97;2.70;;;;;;;28.05;65.16;99379.03;5049104;28;20212;-74
2022/07/01 05:26:17;;;;;;;2.93;2.77;;;;;;;28.08;64.79;99389.28;5049892;28;20673;-72
2022/07/01 05:28:44;;;;;;;3.90;2.70;;;;;;;28.23;63.62;99389.53;5050224;28;20207;-68
2022/07/01 05:31:11;;;;;;;3.37;3.27;;;;;;;28.30;63.50;99382.66;5051057;28;20212;-72
2022/07/01 05:33:40;;;;;;;3.47;3.27;;;;;;;28.39;62.58;99392.25;5048007;28;20665;-72
2022/07/01 05:36:07;;;;;;;3.17;2.97;;;;;;;28.26;63.65;99370.75;5048668;28;20297;-73
2022/07/01 05:38:34;;;;;;;3.23;3.13;;;;;;;28.38;62.89;99386.13;5041646;28;20209;-72
2022/07/01 05:41:01;;;;;;;2.90;2.80;;;;;;;28.47;62.15;99384.34;5046538;28;20742;-72
2022/07/01 05:43:29;;;;;;;3.00;2.90;;;;;;;28.53;62.52;99383.72;5049906;28;20201;-68
2022/07/01 05:45:56;;;;;;;3.37;2.97;;;;;;;28.55;60.44;99387.03;5048045;28;20291;-74
2022/07/01 05:48:23;;;;;;;3.33;3.03;;;;;;;28.70;61.08;99393.34;5048617;28;20207;-72
2022/07/01 05:50:51;;;;;;;3.40;3.27;;;;;;;28.85;60.49;99393.56;5050096;28;20732;-71
2022/07/01 05:53:19;;;;;;;6.80;3.07;;;;;;;29.00;60.62;99398.03;5048906;28;20539;-72
2022/07/01 05:55:46;;;;;;;3.33;3.07;;;;;;;29.25;59.07;99395.41;5042730;28;20221;-71
2022/07/01 05:58:14;;;;;;;3.20;3.00;;;;;;;29.48;60.09;99385.84;5046616;28;20200;-72
2022/07/01 06:00:42;;;;;;;3.27;3.10;;;;;;;29.76;57.65;99400.31;5049814;28;20580;-71
2022/07/01 06:03:09;;;;;;;3.03;2.87;;;;;;;29.82;59.17;99394.38;5042326;28;20208;-71
2022/07/01 06:05:36;;;;;;;3.22;3.13;;;;;;;29.90;58.79;99397.03;5046488;28;20205;-71
2022/07/01 06:08:05;;;;;;;3.33;3.13;;;;;;;30.08;59.13;99388.88;5040443;28;20259;-71
2022/07/01 06:10:32;;;;;;;3.38;3.17;;;;;;;30.17;56.24;99385.22;5040089;28;20228;-71
2022/07/01 06:12:59;;;;;;;3.33;3.20;;;;;;;30.23;56.89;99378.41;5046760;28;20203;-71
2022/07/01 06:15:26;;;;;;;3.58;3.28;;;;;;;30.40;58.03;99394.06;5052071;28;20227;-72
2022/07/01 06:17:54;;;;;;;2.95;2.85;;;;;;;30.56;56.11;99382.56;5049969;28;20197;-70
2022/07/01 06:20:21;;;;;;;2.92;2.83;;;;;;;30.80;54.07;99400.13;5049997;28;20212;-70
2022/07/01 06:22:47;;;;;;;3.10;2.90;;;;;;;30.99;54.09;99397.88;5051429;28;20274;-70
2022/07/01 06:25:16;;;;;;;5.10;3.38;;;;;;;31.05;53.45;99383.13;5048531;28;20212;-70
2022/07/01 06:27:45;;;;;;;2.75;2.65;;;;;;;31.31;54.84;99393.34;5049575;28;20205;-70
2022/07/01 06:30:13;;;;;;;2.90;2.80;;;;;;;31.57;52.35;99399.06;5042269;28;20212;-70
2022/07/01 06:32:40;;;;;;;3.00;2.80;;;;;;;31.84;52.34;99395.81;5038419;28;20212;-70
2022/07/01 06:35:08;;;;;;;3.00;2.90;;;;;;;31.98;53.07;99402.97;5034248;28;20196;-70
2022/07/01 06:37:35;;;;;;;2.58;2.47;;;;;;;32.20;50.48;99407.38;5048191;28;20688;-70
2022/07/01 06:40:03;;;;;;;2.88;2.70;;;;;;;32.43;51.59;99412.56;5041134;28;20614;-70
2022/07/01 06:42:32;;;;;;;3.67;3.47;;;;;;;32.65;49.41;99413.47;5047497;28;20595;-70
2022/07/01 06:44:58;;;;;;;2.15;2.08;;;;;;;32.92;49.30;99407.44;5044360;28;20707;-70
2022/07/01 06:47:25;;;;;;;3.20;2.90;;;;;;;33.08;46.93;99407.19;5049010;28;20205;-70
2022/07/01 06:49:52;;;;;;;6.13;3.67;;;;;;;33.19;49.40;99408.50;5048930;28;20223;-70
2022/07/01 06:52:19;;;;;;;3.50;2.55;;;;;;;33.39;49.44;99408.69;5046532;28;20200;-70
2022/07/01 06:54:46;;;;;;;3.28;3.08;;;;;;;33.52;45.81;99401.66;5047547;28;20589;-70
2022/07/01 06:57:13;;;;;;;3.85;3.58;;;;;;;33.78;47.96;99401.88;5047811;28;20678;-70
2022/07/01 06:59:41;;;;;;;2.60;2.50;;;;;;;33.91;45.15;99413.59;5047577;28;20201;-69
2022/07/01 07:02:08;;;;;;;3.05;2.30;;;;;;;34.08;44.44;99410.44;5047216;28;20247;-71
2022/07/01 07:04:35;;;;;;;2.88;2.78;;;;;;;34.16;44.98;99404.16;5048284;28;20209;-71
2022/07/01 07:07:02;;;;;;;4.05;2.60;;;;;;;34.09;45.40;99412.06;5047695;28;20661;-71
2022/07/01 07:09:28;;;;;;;2.75;2.65;;;;;;;34.23;46.47;99403.16;5048624;28;20213;-69
2022/07/01 07:11:55;;;;;;;3.25;3.10;;;;;;;34.23;45.74;99411.16;5048867;28;20197;-71
2022/07/01 07:14:22;;;;;;;2.92;2.83;;;;;;;34.42;47.01;99390.94;5047457;28;20205;-71
2022/07/01 07:16:53;;;;;;;2.92;2.53;;;;;;;34.59;45.38;99392.25;5049419;28;20666;-71
2022/07/01 07:19:20;;;;;;;3.20;2.15;;;;;;;34.67;42.62;99399.28;5050104;28;20208;-71
2022/07/01 07:21:47;;;;;;;2.42;2.33;;;;;;;34.78;46.34;99390.69;5052927;28;20205;-72
2022/07/01 07:24:13;;;;;;;2.95;2.40;;;;;;;34.98;44.15;99385.38;5052442;28;20201;-71
2022/07/01 07:26:40;;;;;;;2.28;2.17;;;;;;;35.27;43.26;99385.84;5052163;28;20672;-72
2022/07/01 07:29:07;;;;;;;2.15;2.00;;;;;;;35.43;40.94;99391.78;5052447;28;20200;-72
2022/07/01 07:31:34;;;;;;;2.40;2.30;;;;;;;35.44;40.50;99396.94;5049247;28;20216;-72
2022/07/01 07:34:03;;;;;;;1.60;1.55;;;;;;;35.50;39.14;99387.28;5051049;28;20225;-72
2022/07/01 07:36:29;;;;;;;3.60;1.77;;;;;;;35.35;41.56;99395.47;5051799;28;20231;-72
2022/07/01 07:38:56;;;;;;;3.47;2.20;;;;;;;35.36;40.51;99388.31;5052268;28;20201;-72
2022/07/01 07:41:23;;;;;;;1.98;1.60;;;;;;;35.44;39.71;99396.09;5049730;28;20225;-70
2022/07/01 07:43:50;;;;;;;1.58;1.48;;;;;;;35.54;38.14;99399.19;5049654;28;20612;-72
2022/07/01 07:46:17;;;;;;;2.28;1.92;;;;;;;35.57;39.27;99401.44;5051097;28;20247;-72
2022/07/01 07:48:45;;;;;;;1.67;1.58;;;;;;;35.78;37.78;99399.38;5052371;28;20197;-72
2022/07/01 07:51:16;;;;;;;2.67;1.52;;;;;;;35.83;37.23;99401.44;5052323;28;20201;-71
2022/07/01 07:53:43;;;;;;;1.80;1.70;;;;;;;35.92;37.40;99400.16;5052749;28;20200;-72
2022/07/01 07:56:11;;;;;;;1.63;1.58;;;;;;;35.99;37.06;99406.31;5050310;28;20216;-71
2022/07/01 07:58:41;;;;;;;1.90;1.80;;;;;;;36.15;35.74;99400.56;5051572;28;20200;-71
2022/07/01 08:01:09;;;;;;;3.60;1.70;;;;;;;36.25;37.72;99395.56;5051962;28;20201;-72
2022/07/01 08:03:36;;;;;;;2.45;1.70;;;;;;;36.45;36.22;99400.03;5051525;28;20354;-72
2022/07/01 08:06:03;;;;;;;4.30;1.77;;;;;;;36.49;35.87;99398.53;5051771;28;20687;-72
2022/07/01 08:08:31;;;;;;;1.85;1.75;;;;;;;36.70;35.83;99400.94;5047898;28;20553;-71
2022/07/01 08:10:58;;;;;;;1.77;1.70;;;;;;;36.68;37.25;99397.66;5050649;28;20212;-72
2022/07/01 08:13:25;;;;;;;6.78;2.10;;;;;;;36.62;36.55;99398.50;5051214;28;20211;-72
2022/07/01 08:15:51;;;;;;;2.03;1.92;;;;;;;36.83;35.96;99393.66;5052222;28;20661;-70
2022/07/01 08:18:18;;;;;;;1.83;1.73;;;;;;;37.07;37.03;99400.09;5052495;28;20221;-71
2022/07/01 08:20:45;;;;;;;1.52;1.42;;;;;;;37.20;33.30;99397.34;5052248;28;20288;-70
2022/07/01 08:23:12;;;;;;;2.03;1.85;;;;;;;37.32;32.01;99402.81;5052197;28;20669;-71
2022/07/01 08:25:41;;;;;;;2.13;1.88;;;;;;;37.51;34.15;99401.03;5050348;28;20201;-70
2022/07/01 08:28:08;;;;;;;11.43;2.10;;;;;;;37.62;35.60;99402.97;5051170;28;20672;-71
2022/07/01 08:30:34;;;;;;;2.20;2.08;;;;;;;37.51;33.44;99393.81;5051899;28;20205;-70
2022/07/01 08:33:01;;;;;;;1.80;1.70;;;;;;;37.32;34.19;99400.13;5050529;28;20204;-72
2022/07/01 08:35:28;;;;;;;2.10;2.00;;;;;;;37.39;37.51;99392.84;5049908;28;20203;-71
2022/07/01 08:37:56;;;;;;;2.10;2.00;;;;;;;37.44;33.44;99397.56;5051978;28;20216;-71
2022/07/01 08:40:27;;;;;;;2.20;2.10;;;;;;;37.42;33.32;99392.41;5050162;28;20299;-71
2022/07/01 08:42:58;;;;;;;2.50;2.40;;;;;;;37.52;35.00;99386.59;5050550;28;20200;-71
2022/07/01 08:45:27;;;;;;;5.85;2.67;;;;;;;37.46;34.65;99393.66;5051499;28;20604;-72
2022/07/01 08:48:00;;;;;;;1.85;1.75;;;;;;;37.52;35.31;99390.09;5051308;28;20251;-72
2022/07/01 08:50:27;;;;;;;2.65;1.85;;;;;;;37.53;34.83;99393.59;5051767;28;20213;-72
2022/07/01 08:52:54;;;;;;;2.03;1.95;;;;;;;37.60;33.48;99389.00;5051408;28;20224;-71
2022/07/01 08:55:22;;;;;;;2.47;2.28;;;;;;;37.60;32.84;99389.00;5051500;28;20210;-70
2022/07/01 08:57:50;;;;;;;1.60;1.60;;;;;;;37.72;33.39;99389.91;5048538;28;20224;-71
2022/07/01 09:00:18;;;;;;;2.00;1.90;;;;;;;37.48;32.63;99377.38;5041902;28;20204;-71
2022/07/01 09:02:54;;;;;;;3.40;2.30;;;;;;;37.63;33.63;99383.19;5048912;28;20211;-71
2022/07/01 09:05:22;;;;;;;2.03;1.83;;;;;;;37.61;34.52;99380.72;5047827;28;20209;-71
2022/07/01 09:07:56;;;;;;;2.78;2.22;;;;;;;37.68;33.96;99375.31;5044369;28;20205;-71
2022/07/01 09:10:24;;;;;;;3.42;2.10;;;;;;;37.56;33.31;99372.56;5046685;28;20258;-71
2022/07/01 09:12:50;;;;;;;2.38;2.05;;;;;;;37.57;36.66;99370.72;5049113;28;20207;-71
2022/07/01 09:15:25;;;;;;;2.65;2.35;;;;;;;37.63;38.20;99375.19;5049090;28;20204;-71
2022/07/01 09:17:53;;;;;;;3.10;2.63;;;;;;;37.70;37.21;99368.72;5049785;28;20220;-71
2022/07/01 09:20:28;;;;;;;2.25;2.15;;;;;;;37.70;34.00;99374.09;5046751;28;20201;-71
2022/07/01 09:23:06;;;;;;;2.25;1.92;;;;;;;37.49;33.35;99376.34;5048007;28;20200;-71
2022/07/01 09:25:39;;;;;;;2.45;2.33;;;;;;;37.47;35.94;99373.06;5049545;28;20196;-71
2022/07/01 09:28:12;;;;;;;2.25;2.15;;;;;;;37.30;36.21;99372.78;5049850;28;20197;-69
2022/07/01 09:30:43;;;;;;;2.78;2.67;;;;;;;37.32;37.15;99371.50;5049729;28;20212;-72
2022/07/01 09:33:12;;;;;;;2.65;2.13;;;;;;;37.37;36.47;99367.38;5047975;28;20205;-71
2022/07/01 09:35:40;;;;;;;2.20;2.10;;;;;;;37.69;34.54;99371.59;5046596;28;20568;-72
2022/07/01 09:38:10;;;;;;;2.45;2.20;;;;;;;38.03;33.74;99372.94;5047022;28;20224;-73
2022/07/01 09:40:57;;;;;;;4.13;2.15;;;;;;;38.35;33.95;99366.34;5048425;28;20232;-71
2022/07/01 09:43:25;;;;;;;3.40;2.00;;;;;;;38.56;32.60;99357.81;5049872;28;20673;-73
2022/07/01 09:45:56;;;;;;;2.08;1.95;;;;;;;38.81;32.70;99360.38;5049686;28;20232;-71
2022/07/01 09:48:23;;;;;;;2.47;2.38;;;;;;;39.02;32.88;99367.06;5047832;28;20197;-72
2022/07/01 09:50:51;;;;;;;2.63;2.15;;;;;;;39.17;33.45;99360.22;5050595;28;20207;-72
2022/07/01 09:53:18;;;;;;;2.13;2.03;;;;;;;39.23;31.04;99358.44;5049630;28;20208;-72
2022/07/01 09:55:45;;;;;;;2.97;2.30;;;;;;;39.34;31.04;99350.47;5050895;28;20204;-68
2022/07/01 09:58:11;;;;;;;2.33;2.22;;;;;;;39.52;31.48;99364.81;5049820;28;20220;-70
2022/07/01 10:00:39;;;;;;;2.47;2.38;;;;;;;39.41;30.73;99362.94;5049088;28;20238;-70
2022/07/01 10:03:08;;;;;;;2.38;1.90;;;;;;;39.05;29.90;99355.88;5049848;28;20224;-71
2022/07/01 10:05:48;;;;;;;2.60;2.50;;;;;;;38.69;29.33;99351.47;5048306;28;20686;-71
2022/07/01 10:08:42;;;;;;;2.22;2.13;;;;;;;38.71;30.78;99352.84;5049380;28;20204;-70
2022/07/01 10:11:40;;;;;;;2.40;2.30;;;;;;;38.95;31.80;99352.94;5049349;28;20232;-70
2022/07/01 10:14:09;;;;;;;2.17;2.08;;;;;;;39.10;30.02;99348.75;5043516;28;20588;-71
2022/07/01 10:16:38;;;;;;;2.70;2.50;;;;;;;39.16;31.45;99353.19;5045151;28;20227;-69
2022/07/01 10:19:26;;;;;;;2.47;2.38;;;;;;;39.07;29.44;99354.59;5048290;28;20231;-70
2022/07/01 10:21:56;;;;;;;2.80;2.28;;;;;;;38.67;29.11;99342.84;5050061;28;20232;-71
2022/07/01 10:24:24;;;;;;;5.53;2.33;;;;;;;38.40;29.86;99353.09;5050121;28;20223;-71
2022/07/01 10:26:52;;;;;;;1.88;1.77;;;;;;;38.41;31.63;99344.03;5048774;28;20211;-72
2022/07/01 10:29:30;;;;;;;2.13;2.03;;;;;;;38.34;34.03;99333.38;5049340;28;20668;-69
2022/07/01 10:32:02;;;;;;;2.47;2.20;;;;;;;38.46;29.73;99332.63;5048309;28;20208;-69
2022/07/01 10:34:37;;;;;;;2.20;2.10;;;;;;;38.56;28.87;99324.84;5047630;28;20690;-69
2022/07/01 10:37:08;;;;;;;4.70;2.38;;;;;;;38.70;28.07;99327.13;5047828;28;20220;-69
2022/07/01 10:39:57;;;;;;;2.40;2.20;;;;;;;38.80;28.98;99323.91;5038162;28;20593;-69
2022/07/01 10:42:30;;;;;;;2.50;2.40;;;;;;;38.92;29.13;99326.59;5039770;28;20224;-70
2022/07/01 10:45:08;;;;;;;2.85;2.40;;;;;;;39.17;30.37;99317.28;5046039;28;20208;-69
2022/07/01 10:47:37;;;;;;;2.25;2.15;;;;;;;38.71;28.44;99309.97;5047238;28;20211;-70
2022/07/01 10:50:15;;;;;;;2.78;2.58;;;;;;;38.00;29.14;99320.63;5046722;28;20220;-70
2022/07/01 10:53:02;;;;;;;3.00;2.67;;;;;;;37.97;28.27;99313.03;5043823;28;20205;-69
2022/07/01 10:55:39;;;;;;;2.40;2.30;;;;;;;37.95;28.85;99312.47;5046994;28;20277;-69
2022/07/01 10:58:06;;;;;;;2.72;2.63;;;;;;;38.10;28.59;99309.38;5048187;28;20216;-69
2022/07/01 11:00:35;;;;;;;2.47;2.38;;;;;;;38.42;30.96;99307.34;5050160;28;20226;-69
2022/07/01 11:03:21;;;;;;;2.45;2.35;;;;;;;38.82;28.72;99308.41;5049879;28;20668;-70
2022/07/01 11:05:52;;;;;;;2.63;2.42;;;;;;;38.90;27.81;99310.75;5045481;28;20223;-70
2022/07/01 11:08:20;;;;;;;2.50;2.40;;;;;;;38.72;25.87;99308.94;5049194;28;20211;-70
2022/07/01 11:10:51;;;;;;;2.10;2.00;;;;;;;38.38;26.99;99311.53;5047938;28;20201;-70
2022/07/01 11:13:20;;;;;;;3.05;2.95;;;;;;;38.37;27.01;99315.25;5045910;28;21509;-70
2022/07/01 11:15:48;;;;;;;2.95;2.85;;;;;;;38.22;28.48;99308.41;5044271;28;20941;-71
2022/07/01 11:18:16;;;;;;;2.60;2.50;;;;;;;37.97;27.50;99299.66;5049041;28;20715;-69
2022/07/01 11:20:44;;;;;;;3.72;2.75;;;;;;;37.57;28.11;99299.31;5051516;28;20209;-70
2022/07/01 11:23:13;;;;;;;3.30;2.60;;;;;;;37.18;27.67;99303.16;5050849;28;20201;-69
2022/07/01 11:25:41;;;;;;;3.58;2.72;;;;;;;37.16;28.72;99302.53;5051272;28;20581;-71
2022/07/01 11:28:07;;;;;;;2.45;2.35;;;;;;;37.34;28.86;99299.91;5048019;28;20202;-70
2022/07/01 11:30:34;;;;;;;3.45;2.70;;;;;;;37.51;29.30;99291.34;5049806;28;20208;-70
2022/07/01 11:33:01;;;;;;;2.13;2.03;;;;;;;37.54;28.60;99290.91;5051406;28;20197;-70
2022/07/01 11:41:05;;;;;;;2.45;2.28;;;;;;;37.58;29.66;99279.50;5052349;28;20227;-71
2022/07/01 11:43:35;;;;;;;3.15;3.05;;;;;;;37.60;31.44;99276.63;5052116;28;20196;-70
2022/07/01 11:46:03;;;;;;;2.80;2.70;;;;;;;37.66;28.56;99276.56;5052441;28;20204;-71
2022/07/01 11:48:38;;;;;;;2.88;2.67;;;;;;;37.77;28.62;99277.66;5052529;28;20232;-71
2022/07/01 11:51:12;;;;;;;2.35;2.25;;;;;;;37.55;33.52;99271.94;5052338;28;20196;-71
2022/07/01 11:53:42;;;;;;;2.42;2.30;;;;;;;37.66;30.95;99271.19;5052367;28;20712;-70
2022/07/01 11:56:10;;;;;;;2.40;2.30;;;;;;;37.52;30.19;99269.72;5048551;28;20739;-71
2022/07/01 11:58:49;;;;;;;2.80;2.70;;;;;;;37.54;28.06;99266.81;5048157;28;20239;-72
2022/07/01 12:01:28;;;;;;;3.95;2.63;;;;;;;37.52;28.11;99277.72;5046141;28;20681;-71